Time,TemperatureF,DewpointF,PressureIn,WindDirection,WindDirectionDegrees,WindSpeedMPH,WindSpeedGustMPH,Humidity,HourlyPrecipIn,Conditions,Clouds,dailyrainin,SoftwareType,DateUTC
2013-02-13 00:00:00,14.0,14.0,-100.00,NW,305,4.0,13.0,97,-99.99,,,-99.99,,2013-02-13 07:00:00,
2013-02-13 00:32:00,14.0,14.0,-100.00,NW,305,4.0,13.0,97,-99.99,,,-99.99,,2013-02-13 07:32:00,
2013-02-13 00:42:00,14.0,14.0,-100.00,NW,305,4.0,13.0,97,-99.99,,,-99.99,,2013-02-13 07:42:00,
2013-02-13 00:52:00,14.0,14.0,-100.00,NW,305,4.0,13.0,97,-99.99,,,-99.99,,2013-02-13 07:52:00,
2013-02-13 02:00:00,14.0,14.0,-100.00,NW,308,5.0,11.0,97,-99.99,,,-99.99,,2013-02-13 09:00:00,
2013-02-13 02:42:00,14.0,14.0,-100.00,NW,308,5.0,11.0,97,-99.99,,,-99.99,,2013-02-13 09:42:00,
2013-02-13 02:52:00,14.0,14.0,-100.00,NW,308,5.0,11.0,97,-99.99,,,-99.99,,2013-02-13 09:52:00,
2013-02-13 04:00:00,15.0,14.0,-100.00,WNW,303,3.0,7.0,97,-99.99,,,-99.99,,2013-02-13 11:00:00,
2013-02-13 04:32:00,15.0,14.0,-100.00,WNW,303,3.0,7.0,97,-99.99,,,-99.99,,2013-02-13 11:32:00,
2013-02-13 04:42:00,15.0,14.0,-100.00,WNW,303,3.0,7.0,97,-99.99,,,-99.99,,2013-02-13 11:42:00,
2013-02-13 04:52:00,15.0,14.0,-100.00,WNW,303,3.0,7.0,97,-99.99,,,-99.99,,2013-02-13 11:52:00,
2013-02-13 06:00:00,17.0,17.0,-100.00,NW,317,3.0,8.0,98,-99.99,,,-99.99,,2013-02-13 13:00:00,
2013-02-13 06:32:00,17.0,17.0,-100.00,NW,317,3.0,8.0,98,-99.99,,,-99.99,,2013-02-13 13:32:00,
2013-02-13 06:42:00,17.0,17.0,-100.00,NW,317,3.0,8.0,98,-99.99,,,-99.99,,2013-02-13 13:42:00,
2013-02-13 06:52:00,17.0,17.0,-100.00,NW,317,3.0,8.0,98,-99.99,,,-99.99,,2013-02-13 13:52:00,
2013-02-13 08:00:00,15.0,14.0,-100.00,NW,311,3.0,7.0,97,-99.99,,,-99.99,,2013-02-13 15:00:00,
2013-02-13 08:32:00,15.0,14.0,-100.00,NW,311,3.0,7.0,97,-99.99,,,-99.99,,2013-02-13 15:32:00,
2013-02-13 08:42:00,15.0,14.0,-100.00,NW,311,3.0,7.0,97,-99.99,,,-99.99,,2013-02-13 15:42:00,
2013-02-13 08:52:00,15.0,14.0,-100.00,NW,311,3.0,7.0,97,-99.99,,,-99.99,,2013-02-13 15:52:00,
2013-02-13 10:00:00,18.0,18.0,-100.00,WNW,301,3.0,12.0,98,-99.99,,,-99.99,,2013-02-13 17:00:00,
2013-02-13 10:32:00,18.0,18.0,-100.00,WNW,301,3.0,12.0,98,-99.99,,,-99.99,,2013-02-13 17:32:00,
2013-02-13 10:42:00,18.0,18.0,-100.00,WNW,301,3.0,12.0,98,-99.99,,,-99.99,,2013-02-13 17:42:00,
2013-02-13 10:52:00,18.0,18.0,-100.00,WNW,301,3.0,12.0,98,-99.99,,,-99.99,,2013-02-13 17:52:00,
2013-02-13 12:00:00,23.0,20.0,-100.00,WNW,302,7.0,15.0,85,-99.99,,,-99.99,,2013-02-13 19:00:00,
2013-02-13 12:32:00,23.0,20.0,-100.00,WNW,302,7.0,15.0,85,-99.99,,,-99.99,,2013-02-13 19:32:00,
2013-02-13 12:42:00,23.0,20.0,-100.00,WNW,302,7.0,15.0,85,-99.99,,,-99.99,,2013-02-13 19:42:00,
2013-02-13 12:52:00,23.0,20.0,-100.00,WNW,302,7.0,15.0,85,-99.99,,,-99.99,,2013-02-13 19:52:00,
2013-02-13 14:00:00,23.0,20.0,-100.00,WNW,294,6.0,16.0,88,-99.99,,,-99.99,,2013-02-13 21:00:00,
2013-02-13 14:32:00,23.0,20.0,-100.00,WNW,294,6.0,16.0,88,-99.99,,,-99.99,,2013-02-13 21:32:00,
2013-02-13 14:42:00,23.0,20.0,-100.00,WNW,294,6.0,16.0,88,-99.99,,,-99.99,,2013-02-13 21:42:00,
2013-02-13 14:52:00,23.0,20.0,-100.00,WNW,294,6.0,16.0,88,-99.99,,,-99.99,,2013-02-13 21:52:00,
2013-02-13 16:00:00,23.0,20.0,-100.00,West,281,4.0,12.0,87,-99.99,,,-99.99,,2013-02-13 23:00:00,
2013-02-13 16:32:00,23.0,20.0,-100.00,West,281,4.0,12.0,87,-99.99,,,-99.99,,2013-02-13 23:32:00,
2013-02-13 16:42:00,23.0,20.0,-100.00,West,281,4.0,12.0,87,-99.99,,,-99.99,,2013-02-13 23:42:00,
2013-02-13 16:52:00,23.0,20.0,-100.00,West,281,4.0,12.0,87,-99.99,,,-99.99,,2013-02-13 23:52:00,
2013-02-13 20:00:00,17.0,17.0,-100.00,WSW,251,4.0,12.0,97,-99.99,,,-99.99,,2013-02-14 03:00:00,
2013-02-13 20:32:00,17.0,17.0,-100.00,WSW,251,4.0,12.0,97,-99.99,,,-99.99,,2013-02-14 03:32:00,
2013-02-13 20:42:00,17.0,17.0,-100.00,WSW,251,4.0,12.0,97,-99.99,,,-99.99,,2013-02-14 03:42:00,
2013-02-13 20:52:00,17.0,17.0,-100.00,WSW,251,4.0,12.0,97,-99.99,,,-99.99,,2013-02-14 03:52:00,
2013-02-13 22:00:00,17.0,17.0,-100.00,WNW,292,6.0,20.0,98,-99.99,,,-99.99,,2013-02-14 05:00:00,
2013-02-13 22:32:00,17.0,17.0,-100.00,WNW,292,6.0,20.0,98,-99.99,,,-99.99,,2013-02-14 05:32:00,
2013-02-13 22:42:00,17.0,17.0,-100.00,WNW,292,6.0,20.0,98,-99.99,,,-99.99,,2013-02-14 05:42:00,
2013-02-13 22:52:00,17.0,17.0,-100.00,WNW,292,6.0,20.0,98,-99.99,,,-99.99,,2013-02-14 05:52:00,